createdAt,value
2022-08-09T00:00:05.939Z,52.62
2022-08-09T00:02:49.259Z,52.07
2022-08-09T00:06:17.499Z,52.12
2022-08-09T00:08:09.659Z,51.99
2022-08-09T00:10:40.535Z,54.03
2022-08-09T00:13:16.843Z,53.37
2022-08-09T00:15:59.941Z,52.72
2022-08-09T00:18:35.563Z,52.68
2022-08-09T00:21:08.458Z,52.75
2022-08-09T00:23:55.256Z,52.38
2022-08-09T00:26:32.709Z,52.44
2022-08-09T00:29:12.362Z,51.84
2022-08-09T00:31:59.243Z,51.54
2022-08-09T00:34:27.335Z,53.87
2022-08-09T00:36:59.447Z,53.51
2022-08-09T00:40:12.231Z,53.42
2022-08-09T00:44:10.304Z,53.19
2022-08-09T00:44:59.313Z,52.63
2022-08-09T00:47:35.936Z,53.08
2022-08-09T00:50:07.087Z,53.99
2022-08-09T00:52:42.230Z,54.72
2022-08-09T00:55:16.779Z,55.02
2022-08-09T00:57:59.302Z,56.04
2022-08-09T01:00:27.077Z,56.17
2022-08-09T01:03:03.335Z,56.78
2022-08-09T01:05:53.481Z,57.05
2022-08-09T01:08:31.186Z,56.92
2022-08-09T01:11:18.510Z,57.42
2022-08-09T01:14:00.028Z,56.73
2022-08-09T01:16:33.359Z,57.34
2022-08-09T01:19:17.137Z,57.09
2022-08-09T01:22:18.833Z,57.18
2022-08-09T01:25:12.492Z,57.91
2022-08-09T01:27:40.841Z,58.81
2022-08-09T01:30:28.623Z,58.94
2022-08-09T01:32:57.843Z,58.25
2022-08-09T01:35:42.540Z,58.02
2022-08-09T01:38:15.769Z,57.46
2022-08-09T01:41:04.836Z,57.23
2022-08-09T01:43:42.042Z,56.74
2022-08-09T01:46:26.947Z,56.53
2022-08-09T01:49:10.721Z,56.43
2022-08-09T01:51:53.854Z,56.56
2022-08-09T01:54:45.744Z,56.44
2022-08-09T01:57:15.954Z,57.83
2022-08-09T01:59:51.901Z,58.64
2022-08-09T02:02:32.670Z,58.50
2022-08-09T02:05:15.175Z,59.80
2022-08-09T02:08:40.802Z,60.87
2022-08-09T02:10:51.740Z,60.01
2022-08-09T02:13:21.953Z,59.48
2022-08-09T02:15:55.234Z,59.09
2022-08-09T02:18:30.980Z,59.05
2022-08-09T02:21:11.148Z,59.84
2022-08-09T02:23:54.569Z,60.07
2022-08-09T02:26:27.250Z,59.41
2022-08-09T02:28:59.883Z,60.25
2022-08-09T02:31:31.267Z,59.53
2022-08-09T02:34:40.088Z,59.07
2022-08-09T02:37:05.802Z,58.47
2022-08-09T02:39:41.958Z,58.60
2022-08-09T02:42:12.906Z,59.14
2022-08-09T02:44:42.591Z,60.56
2022-08-09T02:47:13.764Z,61.52
2022-08-09T02:49:48.071Z,61.21
2022-08-09T02:52:36.162Z,61.79
2022-08-09T02:55:20.548Z,62.23
2022-08-09T02:58:00.367Z,61.34
2022-08-09T03:00:39.493Z,60.66
2022-08-09T03:04:12.576Z,61.39
2022-08-09T03:06:12.525Z,62.26
2022-08-09T03:08:40.395Z,63.82
2022-08-09T03:11:10.348Z,64.28
2022-08-09T03:13:43.776Z,65.13
2022-08-09T03:16:24.715Z,64.42
2022-08-09T03:18:53.048Z,65.46
2022-08-09T03:21:25.894Z,66.08
2022-08-09T03:24:03.657Z,66.51
2022-08-09T03:26:33.540Z,65.31
2022-08-09T03:29:01.184Z,64.09
2022-08-09T03:31:42.394Z,62.88
2022-08-09T03:34:24.101Z,61.79
2022-08-09T03:36:59.623Z,61.48
2022-08-09T03:39:28.837Z,61.17
2022-08-09T03:42:06.682Z,61.37
2022-08-09T03:44:33.965Z,62.87
2022-08-09T03:47:00.621Z,63.28
2022-08-09T03:49:32.848Z,63.63
2022-08-09T03:52:04.377Z,63.54
2022-08-09T03:54:34.795Z,63.47
2022-08-09T03:57:18.530Z,63.25
2022-08-09T03:59:54.982Z,62.57
2022-08-09T04:02:28.028Z,62.41
2022-08-09T04:05:06.636Z,63.00
2022-08-09T04:07:53.596Z,62.54
2022-08-09T04:10:28.493Z,62.13
2022-08-09T04:13:03.792Z,62.01
2022-08-09T04:16:17.965Z,61.86
2022-08-09T04:18:19.311Z,62.90
2022-08-09T04:20:47.938Z,62.80
2022-08-09T04:23:17.143Z,63.52
2022-08-09T04:25:51.788Z,63.35
2022-08-09T04:28:30.772Z,63.51
2022-08-09T04:31:09.065Z,62.47
2022-08-09T04:33:51.638Z,62.47
2022-08-09T04:36:24.528Z,62.08
2022-08-09T04:38:51.401Z,61.02
2022-08-09T04:41:19.159Z,60.63
2022-08-09T04:44:06.025Z,60.88
2022-08-09T04:46:57.358Z,61.42
2022-08-09T04:49:40.251Z,63.18
2022-08-09T04:52:11.419Z,63.33
2022-08-09T04:54:38.421Z,63.96
2022-08-09T04:57:05.214Z,63.32
2022-08-09T04:59:37.126Z,61.50
2022-08-09T05:02:04.031Z,61.63
2022-08-09T05:04:33.122Z,61.63
2022-08-09T05:06:59.747Z,60.92
2022-08-09T05:09:41.891Z,60.90
2022-08-09T05:12:13.149Z,59.83
2022-08-09T05:14:42.415Z,60.52
2022-08-09T05:18:36.845Z,60.01
2022-08-09T05:19:56.759Z,59.56
2022-08-09T05:22:33.427Z,58.56
2022-08-09T05:25:06.839Z,57.80
2022-08-09T05:27:38.895Z,56.39
2022-08-09T05:30:12.994Z,56.71
2022-08-09T05:32:43.451Z,56.21
2022-08-09T05:35:10.568Z,54.89
2022-08-09T05:37:46.386Z,55.46
2022-08-09T05:40:15.240Z,54.06
2022-08-09T05:42:42.871Z,52.30
2022-08-09T05:45:10.066Z,51.57
2022-08-09T05:47:51.669Z,51.27
2022-08-09T05:50:26.050Z,52.53
2022-08-09T05:53:02.095Z,52.69
2022-08-09T05:55:29.022Z,53.17
2022-08-09T05:57:58.488Z,52.13
2022-08-09T06:00:28.751Z,53.00
2022-08-09T06:02:58.042Z,52.56
2022-08-09T06:05:49.799Z,51.85
2022-08-09T06:08:13.086Z,51.02
2022-08-09T06:10:39.628Z,51.84
2022-08-09T06:13:18.748Z,51.65
2022-08-09T06:15:51.374Z,51.16
2022-08-09T06:18:19.548Z,48.35
2022-08-09T06:20:49.951Z,50.27
2022-08-09T06:23:21.823Z,50.29
2022-08-09T06:25:50.264Z,49.80
2022-08-09T06:28:22.037Z,50.02
2022-08-09T06:30:54.243Z,49.73
2022-08-09T06:33:41.303Z,48.76
2022-08-09T06:36:09.480Z,48.47
2022-08-09T06:38:38.745Z,46.37
2022-08-09T06:41:19.003Z,48.05
2022-08-09T06:43:49.952Z,44.56
2022-08-09T06:46:39.048Z,44.49
2022-08-09T06:49:06.449Z,44.67
2022-08-09T06:51:33.203Z,45.07
2022-08-09T06:54:05.947Z,44.38
2022-08-09T06:56:36.019Z,43.50
2022-08-09T07:00:51.081Z,43.52
2022-08-09T07:01:59.482Z,43.06
2022-08-09T07:04:31.732Z,44.17
2022-08-09T07:06:59.951Z,41.53
2022-08-09T07:09:53.591Z,41.79
2022-08-09T07:12:18.126Z,40.41
2022-08-09T07:14:50.735Z,40.72
2022-08-09T07:17:19.543Z,40.29
2022-08-09T07:19:48.101Z,39.88
2022-08-09T07:22:18.176Z,39.71
2022-08-09T07:24:49.547Z,39.40
2022-08-09T07:27:33.051Z,40.86
2022-08-09T07:30:01.932Z,40.28
2022-08-09T07:32:33.715Z,39.02
2022-08-09T07:35:10.254Z,39.79
2022-08-09T07:37:43.470Z,41.19
2022-08-09T07:40:18.573Z,39.85
2022-08-09T07:42:56.319Z,40.90
2022-08-09T07:45:37.675Z,39.92
2022-08-09T07:48:05.658Z,39.76
2022-08-09T07:50:36.413Z,39.85
2022-08-09T07:53:05.275Z,39.75
2022-08-09T07:56:03.138Z,39.98
2022-08-09T07:58:21.452Z,41.65
2022-08-09T08:00:58.826Z,39.76
2022-08-09T08:03:36.926Z,40.76
2022-08-09T08:06:04.879Z,40.34
2022-08-09T08:09:00.087Z,40.88
2022-08-09T08:12:09.662Z,39.83
2022-08-09T08:14:06.307Z,39.78
2022-08-09T08:16:33.329Z,39.49
2022-08-09T08:19:02.572Z,40.45
2022-08-09T08:21:30.403Z,39.39
2022-08-09T08:23:57.268Z,39.42
2022-08-09T08:32:29.269Z,41.28
2022-08-09T08:34:59.041Z,40.69
2022-08-09T08:37:41.200Z,41.49
2022-08-09T08:40:16.385Z,38.82
2022-08-09T08:42:47.091Z,40.03
2022-08-09T08:45:16.290Z,40.28
2022-08-09T08:47:45.214Z,37.37
2022-08-09T08:50:18.073Z,37.88
2022-08-09T08:52:59.912Z,37.00
2022-08-09T08:55:28.074Z,37.36
2022-08-09T08:57:56.460Z,36.33
2022-08-09T09:00:30.216Z,36.42
2022-08-09T09:03:08.888Z,36.30
2022-08-09T09:05:58.953Z,36.53
2022-08-09T09:08:37.834Z,36.59
2022-08-09T09:11:13.607Z,35.14
2022-08-09T09:13:56.671Z,36.23
2022-08-09T09:16:34.098Z,35.36
2022-08-09T09:22:07.587Z,35.61
2022-08-09T09:24:37.997Z,35.15
2022-08-09T09:27:08.599Z,36.54
2022-08-09T09:30:14.287Z,35.47
2022-08-09T09:32:32.423Z,35.01
2022-08-09T09:35:09.099Z,33.87
2022-08-09T09:37:40.484Z,33.90
2022-08-09T09:40:09.896Z,33.34
2022-08-09T09:42:38.495Z,33.34
2022-08-09T09:45:08.826Z,33.40
2022-08-09T09:47:56.279Z,33.98
2022-08-09T11:26:40.733Z,30.88
2022-08-09T11:30:04.405Z,31.31
2022-08-09T11:32:43.825Z,29.02
2022-08-09T11:35:18.744Z,28.25
2022-08-09T11:37:56.266Z,27.82
2022-08-09T11:40:30.910Z,27.85
2022-08-09T11:43:00.194Z,27.71
2022-08-09T11:45:42.480Z,29.31
2022-08-09T11:48:25.105Z,27.74
2022-08-09T11:52:56.750Z,28.31
2022-08-09T11:53:59.451Z,27.81
2022-08-09T11:56:41.649Z,27.31
2022-08-09T11:59:10.413Z,28.30
2022-08-09T12:02:16.443Z,27.88
2022-08-09T12:04:28.806Z,28.29
2022-08-09T12:07:04.200Z,28.42
2022-08-09T12:09:34.824Z,28.30
2022-08-09T12:12:04.301Z,28.22
2022-08-09T12:14:40.564Z,28.99
2022-08-09T12:17:28.257Z,28.05
2022-08-09T12:20:21.802Z,26.96
2022-08-09T12:22:56.723Z,29.36
2022-08-09T12:25:36.457Z,26.34
2022-08-09T12:29:12.471Z,26.21
2022-08-09T12:31:58.112Z,26.50
2022-08-09T12:34:07.774Z,27.49
2022-08-09T12:36:58.985Z,28.03
2022-08-09T12:39:37.788Z,28.30
2022-08-09T12:42:16.308Z,28.35
2022-08-09T12:44:46.323Z,28.43
2022-08-09T12:47:22.818Z,28.41
2022-08-09T12:49:52.923Z,28.09
2022-08-09T12:52:19.816Z,28.14
2022-08-09T12:56:12.240Z,28.01
2022-08-09T12:57:54.307Z,27.46
2022-08-09T13:00:29.561Z,27.89
2022-08-09T13:03:03.116Z,27.02
2022-08-09T13:05:52.519Z,28.07
2022-08-09T13:08:40.080Z,27.32
2022-08-09T13:11:23.112Z,27.47
2022-08-09T13:14:38.607Z,26.51
2022-08-09T13:16:53.680Z,26.64
2022-08-09T13:20:09.907Z,26.55
2022-08-09T13:23:00.686Z,28.04
2022-08-09T13:25:16.475Z,26.94
2022-08-09T13:27:54.792Z,27.07
2022-08-09T13:30:49.425Z,27.55
2022-08-09T13:33:11.505Z,26.75
2022-08-09T13:36:37.553Z,27.44
2022-08-09T13:38:56.078Z,27.35
2022-08-09T13:41:56.658Z,24.64
2022-08-09T13:43:59.285Z,25.32
2022-08-09T13:47:16.860Z,24.87
2022-08-09T13:49:20.431Z,26.67
2022-08-09T13:51:59.669Z,25.04
2022-08-09T13:54:30.382Z,26.27
2022-08-09T13:56:57.274Z,26.79
2022-08-09T13:59:25.712Z,26.22
2022-08-09T14:02:04.642Z,26.62
2022-08-09T14:04:31.347Z,27.40
2022-08-09T14:07:03.646Z,28.56
2022-08-09T14:18:33.627Z,29.61
2022-08-09T14:21:00.430Z,28.91
2022-08-09T14:23:40.190Z,26.56
2022-08-09T14:26:16.545Z,26.23
2022-08-09T14:28:45.213Z,26.65
2022-08-09T14:31:11.799Z,26.82
2022-08-09T14:33:39.097Z,27.81
2022-08-09T14:36:20.579Z,28.00
2022-08-09T14:38:52.460Z,27.68
2022-08-09T14:41:39.577Z,28.10
2022-08-09T14:44:11.238Z,26.81
2022-08-09T14:55:29.301Z,28.80
2022-08-09T14:57:59.083Z,28.28
2022-08-09T15:00:26.999Z,27.85
2022-08-09T15:02:58.358Z,27.64
2022-08-09T15:05:26.770Z,28.44
2022-08-09T15:07:56.431Z,27.58
2022-08-09T15:10:26.438Z,28.41
2022-08-09T15:12:57.032Z,28.86
2022-08-09T15:15:24.776Z,28.65
2022-08-09T15:17:56.260Z,27.94
2022-08-09T15:21:58.871Z,28.34
2022-08-09T15:24:05.726Z,27.97
2022-08-09T15:25:59.846Z,28.48
2022-08-09T15:28:27.955Z,27.54
2022-08-09T15:31:10.209Z,27.39
2022-08-09T15:34:32.869Z,27.50
2022-08-09T15:36:29.489Z,27.87
2022-08-09T15:38:58.043Z,27.59
2022-08-09T15:41:31.245Z,28.46
2022-08-09T15:44:02.525Z,27.52
2022-08-09T15:46:33.200Z,26.60
2022-08-09T15:49:21.595Z,27.44
2022-08-09T15:52:05.127Z,27.33
2022-08-09T15:54:44.825Z,26.71
2022-08-09T15:57:35.873Z,26.75
2022-08-09T16:00:08.938Z,27.81
2022-08-09T16:02:37.926Z,28.40
2022-08-09T16:05:06.897Z,29.33
2022-08-09T16:07:38.823Z,29.88
2022-08-09T16:10:07.892Z,29.72
2022-08-09T16:12:50.601Z,30.21
2022-08-09T16:16:04.454Z,29.72
2022-08-09T16:18:06.834Z,29.76
2022-08-09T16:20:35.675Z,29.91
2022-08-09T16:23:04.933Z,29.70
2022-08-09T16:25:39.691Z,30.37
2022-08-09T16:28:07.586Z,30.00
2022-08-09T16:30:44.409Z,29.55
2022-08-09T16:33:11.842Z,30.02
2022-08-09T16:35:57.078Z,29.68
2022-08-09T16:38:27.603Z,29.76
2022-08-09T16:40:56.475Z,29.89
2022-08-09T16:43:23.218Z,30.72
2022-08-09T16:45:53.850Z,29.65
2022-08-09T16:48:42.732Z,29.48
2022-08-09T16:51:13.771Z,29.76
2022-08-09T16:54:22.465Z,28.96
2022-08-09T16:56:32.977Z,29.96
2022-08-09T16:59:06.908Z,29.95
2022-08-09T17:01:37.560Z,30.07
2022-08-09T17:04:06.698Z,30.63
2022-08-09T17:07:03.902Z,30.98
2022-08-09T17:09:45.951Z,31.54
2022-08-09T17:12:07.573Z,31.14
2022-08-09T17:14:34.643Z,31.23
2022-08-09T17:17:03.692Z,31.53
2022-08-09T17:20:29.705Z,31.35
2022-08-09T17:22:51.785Z,30.52
2022-08-09T17:25:19.454Z,31.20
2022-08-09T17:27:49.111Z,31.31
2022-08-09T17:30:25.962Z,31.61
2022-08-09T17:32:53.203Z,32.02
2022-08-09T17:35:19.849Z,31.59
2022-08-09T17:38:11.770Z,32.13
2022-08-09T17:40:35.127Z,32.56
2022-08-09T17:43:32.255Z,32.10
2022-08-09T17:46:04.247Z,32.28
2022-08-09T17:48:51.605Z,32.32
2022-08-09T17:51:20.269Z,32.59
2022-08-09T17:53:53.042Z,32.81
2022-08-09T17:56:27.151Z,33.24
2022-08-09T17:58:56.022Z,33.87
2022-08-09T18:01:23.607Z,33.60
2022-08-09T18:03:54.487Z,32.82
2022-08-09T18:06:32.219Z,32.91
2022-08-09T18:09:04.740Z,33.46
2022-08-09T18:11:46.934Z,33.99
2022-08-09T18:14:23.866Z,34.34
2022-08-09T18:16:52.900Z,33.90
2022-08-09T18:21:00.490Z,34.41
2022-08-09T18:22:13.286Z,34.11
2022-08-09T18:24:45.674Z,34.16
2022-08-09T18:27:13.904Z,34.44
2022-08-09T18:30:42.689Z,34.11
2022-08-09T18:32:47.175Z,33.84
2022-08-09T18:35:48.118Z,34.08
2022-08-09T18:38:09.239Z,34.24
2022-08-09T18:40:38.656Z,34.57
2022-08-09T18:43:05.327Z,34.50
2022-08-09T18:46:50.297Z,34.64
2022-08-09T18:48:19.118Z,34.69
2022-08-09T18:50:47.245Z,34.70
2022-08-09T18:53:16.376Z,34.75
2022-08-09T18:55:55.953Z,34.65
2022-08-09T18:58:32.014Z,34.90
2022-08-09T19:01:00.464Z,35.20
2022-08-09T19:03:28.595Z,35.17
2022-08-09T19:06:04.063Z,35.63
2022-08-09T19:08:33.925Z,35.57
2022-08-09T19:11:05.783Z,35.32
2022-08-09T19:13:38.753Z,35.40
2022-08-09T19:16:21.040Z,35.39
2022-08-09T19:18:49.830Z,35.37
2022-08-09T19:21:16.535Z,35.52
2022-08-09T19:24:37.051Z,36.05
2022-08-09T19:26:34.774Z,36.00
2022-08-09T19:29:15.547Z,36.08
2022-08-09T19:31:49.488Z,35.77
2022-08-09T19:34:23.138Z,35.37
2022-08-09T19:36:56.377Z,36.01
2022-08-09T19:39:43.095Z,36.51
2022-08-09T19:42:14.518Z,36.91
2022-08-09T19:44:41.461Z,36.96
2022-08-09T19:47:08.404Z,37.22
2022-08-09T19:50:10.485Z,37.30
2022-08-09T19:52:26.358Z,37.24
2022-08-09T19:54:53.064Z,37.67
2022-08-09T19:57:19.749Z,38.07
2022-08-09T19:59:59.070Z,38.31
2022-08-09T20:04:11.716Z,38.25
2022-08-09T20:05:23.978Z,38.59
2022-08-09T20:07:59.739Z,38.59
2022-08-09T20:10:36.358Z,38.76
2022-08-09T20:13:05.933Z,38.86
2022-08-09T20:16:35.162Z,39.20
2022-08-09T20:21:56.503Z,39.05
2022-08-09T20:24:34.453Z,39.70
2022-08-09T20:27:08.325Z,39.25
2022-08-09T20:29:39.416Z,39.52
2022-08-09T20:32:30.027Z,40.06
2022-08-09T20:35:01.805Z,40.47
2022-08-09T20:38:19.729Z,40.12
2022-08-09T20:40:28.181Z,40.31
2022-08-09T20:43:18.816Z,40.24
2022-08-09T20:46:00.566Z,40.08
2022-08-09T20:48:45.085Z,40.18
2022-08-09T20:51:22.997Z,39.97
2022-08-09T20:53:57.469Z,40.39
2022-08-09T20:56:46.888Z,41.58
2022-08-09T20:59:17.808Z,41.70
2022-08-09T21:02:04.578Z,41.40
2022-08-09T21:05:50.880Z,41.66
2022-08-09T21:07:24.843Z,41.24
2022-08-09T21:10:06.062Z,42.26
2022-08-09T21:12:37.142Z,41.76
2022-08-09T21:15:12.759Z,42.43
2022-08-09T21:18:21.118Z,42.54
2022-08-09T21:20:35.580Z,43.24
2022-08-09T21:23:04.045Z,43.89
2022-08-09T21:25:37.746Z,43.90
2022-08-09T21:28:15.986Z,43.70
2022-08-09T21:30:45.827Z,43.73
2022-08-09T21:33:19.334Z,43.23
2022-08-09T21:35:51.033Z,43.46
2022-08-09T21:38:31.673Z,43.42
2022-08-09T21:42:04.787Z,43.21
2022-08-09T21:44:49.092Z,43.48
2022-08-09T21:47:27.162Z,43.45
2022-08-09T21:50:00.532Z,43.60
2022-08-09T21:52:38.196Z,43.47
2022-08-09T21:55:14.826Z,43.43
2022-08-09T21:57:59.592Z,43.06
2022-08-09T22:01:02.764Z,43.34
2022-08-09T22:03:48.380Z,43.01
2022-08-09T22:06:31.440Z,42.81
2022-08-09T22:09:11.027Z,43.20
2022-08-09T22:12:06.226Z,43.39
2022-08-09T22:14:31.312Z,44.23
2022-08-09T22:17:10.685Z,44.18
2022-08-09T22:19:58.969Z,44.56
2022-08-09T22:22:33.827Z,44.29
2022-08-09T22:26:06.157Z,44.19
2022-08-09T22:28:00.051Z,44.32
2022-08-09T22:30:34.412Z,44.18
2022-08-09T22:33:03.540Z,44.61
2022-08-09T22:36:01.923Z,44.87
2022-08-09T22:38:44.150Z,44.59
2022-08-09T22:41:13.047Z,44.22
2022-08-09T22:44:01.755Z,44.69
2022-08-09T22:48:15.521Z,45.31
2022-08-09T22:49:30.304Z,45.68
2022-08-09T22:52:04.071Z,45.73
2022-08-09T22:54:33.768Z,45.78
2022-08-09T22:57:02.852Z,45.80
2022-08-09T22:59:57.430Z,45.53
2022-08-09T23:02:20.389Z,45.42
2022-08-09T23:04:54.049Z,45.13
2022-08-09T23:10:26.762Z,45.11
2022-08-09T23:13:13.762Z,44.83
2022-08-09T23:15:44.132Z,44.71
2022-08-09T23:18:39.768Z,44.71
2022-08-09T23:21:12.276Z,45.01
2022-08-09T23:23:40.068Z,45.21
2022-08-09T23:26:10.859Z,45.16
2022-08-09T23:28:37.501Z,45.22
2022-08-09T23:31:04.391Z,45.84
2022-08-09T23:33:31.360Z,45.70
2022-08-09T23:36:04.862Z,45.73
2022-08-09T23:38:33.630Z,45.62
2022-08-09T23:41:01.999Z,45.86
2022-08-09T23:43:28.819Z,46.23
2022-08-09T23:45:55.429Z,45.96
2022-08-09T23:48:22.149Z,45.91
2022-08-09T23:50:48.742Z,46.03
2022-08-09T23:53:15.568Z,46.79
2022-08-09T23:55:48.360Z,47.24
2022-08-09T23:58:27.528Z,47.69
